sensor_id;sensor_type;location;lat;lon;timestamp;P1;durP1;ratioP1;P2;durP2;ratioP2
1987;SDS011;12775;46.994;15.498;2023-03-03T00:00:48;20.12;;;17.00;;
1987;SDS011;12775;46.994;15.498;2023-03-03T00:03:18;19.60;;;15.78;;
1987;SDS011;12775;46.994;15.498;2023-03-03T00:05:47;19.60;;;16.90;;
1987;SDS011;12775;46.994;15.498;2023-03-03T00:08:14;17.76;;;15.84;;
1987;SDS011;12775;46.994;15.498;2023-03-03T00:10:42;21.26;;;16.96;;
1987;SDS011;12775;46.994;15.498;2023-03-03T00:13:12;18.84;;;15.90;;
1987;SDS011;12775;46.994;15.498;2023-03-03T00:15:41;23.82;;;16.50;;
1987;SDS011;12775;46.994;15.498;2023-03-03T00:20:55;21.66;;;16.64;;
1987;SDS011;12775;46.994;15.498;2023-03-03T00:23:39;19.12;;;15.48;;
1987;SDS011;12775;46.994;15.498;2023-03-03T00:26:14;23.08;;;16.42;;
1987;SDS011;12775;46.994;15.498;2023-03-03T00:28:43;22.94;;;16.94;;
1987;SDS011;12775;46.994;15.498;2023-03-03T00:31:13;19.02;;;14.92;;
1987;SDS011;12775;46.994;15.498;2023-03-03T00:33:48;20.64;;;14.94;;
1987;SDS011;12775;46.994;15.498;2023-03-03T00:36:21;19.94;;;16.98;;
1987;SDS011;12775;46.994;15.498;2023-03-03T00:38:52;19.32;;;15.84;;
1987;SDS011;12775;46.994;15.498;2023-03-03T00:41:22;16.12;;;13.50;;
1987;SDS011;12775;46.994;15.498;2023-03-03T00:43:49;16.26;;;14.28;;
1987;SDS011;12775;46.994;15.498;2023-03-03T00:46:17;15.20;;;13.56;;
1987;SDS011;12775;46.994;15.498;2023-03-03T00:48:44;19.94;;;16.90;;
1987;SDS011;12775;46.994;15.498;2023-03-03T00:51:23;20.94;;;14.94;;
1987;SDS011;12775;46.994;15.498;2023-03-03T00:53:51;18.84;;;16.84;;
1987;SDS011;12775;46.994;15.498;2023-03-03T00:56:19;17.46;;;14.42;;
1987;SDS011;12775;46.994;15.498;2023-03-03T00:58:46;22.32;;;15.60;;
1987;SDS011;12775;46.994;15.498;2023-03-03T01:01:14;19.92;;;16.00;;
1987;SDS011;12775;46.994;15.498;2023-03-03T01:03:41;19.16;;;15.24;;
1987;SDS011;12775;46.994;15.498;2023-03-03T01:06:09;16.76;;;13.68;;
1987;SDS011;12775;46.994;15.498;2023-03-03T01:08:37;17.60;;;15.66;;
1987;SDS011;12775;46.994;15.498;2023-03-03T01:11:07;22.46;;;15.98;;
1987;SDS011;12775;46.994;15.498;2023-03-03T01:13:33;24.54;;;16.60;;
1987;SDS011;12775;46.994;15.498;2023-03-03T01:16:01;16.94;;;14.92;;
1987;SDS011;12775;46.994;15.498;2023-03-03T01:18:30;19.80;;;14.22;;
1987;SDS011;12775;46.994;15.498;2023-03-03T01:20:57;18.34;;;15.22;;
1987;SDS011;12775;46.994;15.498;2023-03-03T01:23:25;17.60;;;13.70;;
1987;SDS011;12775;46.994;15.498;2023-03-03T01:25:52;20.30;;;16.04;;
1987;SDS011;12775;46.994;15.498;2023-03-03T01:28:19;18.52;;;14.30;;
1987;SDS011;12775;46.994;15.498;2023-03-03T01:30:47;18.96;;;14.14;;
1987;SDS011;12775;46.994;15.498;2023-03-03T01:33:14;17.28;;;14.92;;
1987;SDS011;12775;46.994;15.498;2023-03-03T01:35:43;16.34;;;13.62;;
1987;SDS011;12775;46.994;15.498;2023-03-03T01:38:10;17.60;;;14.60;;
1987;SDS011;12775;46.994;15.498;2023-03-03T01:40:37;21.80;;;14.22;;
1987;SDS011;12775;46.994;15.498;2023-03-03T01:43:05;19.76;;;15.08;;
1987;SDS011;12775;46.994;15.498;2023-03-03T01:48:30;21.94;;;15.64;;
1987;SDS011;12775;46.994;15.498;2023-03-03T01:51:00;16.02;;;14.12;;
1987;SDS011;12775;46.994;15.498;2023-03-03T01:53:36;13.68;;;12.28;;
1987;SDS011;12775;46.994;15.498;2023-03-03T01:56:07;15.72;;;12.58;;
1987;SDS011;12775;46.994;15.498;2023-03-03T01:58:35;21.12;;;11.96;;
1987;SDS011;12775;46.994;15.498;2023-03-03T02:01:04;15.40;;;12.78;;
1987;SDS011;12775;46.994;15.498;2023-03-03T02:03:31;16.04;;;13.44;;
1987;SDS011;12775;46.994;15.498;2023-03-03T02:06:02;14.66;;;12.74;;
1987;SDS011;12775;46.994;15.498;2023-03-03T02:08:28;18.74;;;12.88;;
1987;SDS011;12775;46.994;15.498;2023-03-03T02:10:55;15.06;;;13.20;;
1987;SDS011;12775;46.994;15.498;2023-03-03T02:13:22;15.90;;;14.08;;
1987;SDS011;12775;46.994;15.498;2023-03-03T02:15:51;22.32;;;14.36;;
1987;SDS011;12775;46.994;15.498;2023-03-03T02:18:17;15.40;;;13.00;;
1987;SDS011;12775;46.994;15.498;2023-03-03T02:23:28;24.50;;;14.14;;
1987;SDS011;12775;46.994;15.498;2023-03-03T02:26:11;14.98;;;11.10;;
1987;SDS011;12775;46.994;15.498;2023-03-03T02:28:39;15.88;;;12.60;;
1987;SDS011;12775;46.994;15.498;2023-03-03T02:31:10;15.06;;;13.56;;
1987;SDS011;12775;46.994;15.498;2023-03-03T02:33:38;16.46;;;13.08;;
1987;SDS011;12775;46.994;15.498;2023-03-03T02:36:05;14.30;;;12.80;;
1987;SDS011;12775;46.994;15.498;2023-03-03T02:38:36;16.20;;;13.42;;
1987;SDS011;12775;46.994;15.498;2023-03-03T02:41:37;16.60;;;14.18;;
1987;SDS011;12775;46.994;15.498;2023-03-03T02:43:55;16.00;;;13.74;;
1987;SDS011;12775;46.994;15.498;2023-03-03T02:46:21;17.70;;;15.20;;
1987;SDS011;12775;46.994;15.498;2023-03-03T02:48:48;20.10;;;14.38;;
1987;SDS011;12775;46.994;15.498;2023-03-03T02:51:16;21.24;;;15.86;;
1987;SDS011;12775;46.994;15.498;2023-03-03T02:53:44;18.86;;;15.44;;
1987;SDS011;12775;46.994;15.498;2023-03-03T02:56:12;16.18;;;13.72;;
1987;SDS011;12775;46.994;15.498;2023-03-03T02:58:40;16.94;;;13.78;;
1987;SDS011;12775;46.994;15.498;2023-03-03T03:01:06;17.88;;;15.26;;
1987;SDS011;12775;46.994;15.498;2023-03-03T03:03:34;20.30;;;14.42;;
1987;SDS011;12775;46.994;15.498;2023-03-03T03:06:02;18.58;;;14.34;;
1987;SDS011;12775;46.994;15.498;2023-03-03T03:08:30;19.26;;;15.90;;
1987;SDS011;12775;46.994;15.498;2023-03-03T03:10:57;18.52;;;16.20;;
1987;SDS011;12775;46.994;15.498;2023-03-03T03:13:24;21.58;;;15.62;;
1987;SDS011;12775;46.994;15.498;2023-03-03T03:15:51;17.70;;;13.84;;
1987;SDS011;12775;46.994;15.498;2023-03-03T03:18:18;15.64;;;13.68;;
1987;SDS011;12775;46.994;15.498;2023-03-03T03:20:45;16.70;;;14.40;;
1987;SDS011;12775;46.994;15.498;2023-03-03T03:23:11;17.38;;;14.30;;
1987;SDS011;12775;46.994;15.498;2023-03-03T03:25:40;17.90;;;15.66;;
1987;SDS011;12775;46.994;15.498;2023-03-03T03:28:09;18.78;;;15.06;;
1987;SDS011;12775;46.994;15.498;2023-03-03T03:30:37;20.26;;;16.08;;
1987;SDS011;12775;46.994;15.498;2023-03-03T03:33:03;19.70;;;16.48;;
1987;SDS011;12775;46.994;15.498;2023-03-03T03:35:32;22.96;;;18.28;;
1987;SDS011;12775;46.994;15.498;2023-03-03T03:37:59;22.70;;;17.38;;
1987;SDS011;12775;46.994;15.498;2023-03-03T03:40:26;21.96;;;17.16;;
1987;SDS011;12775;46.994;15.498;2023-03-03T03:42:55;22.12;;;16.56;;
1987;SDS011;12775;46.994;15.498;2023-03-03T03:45:23;22.32;;;18.10;;
1987;SDS011;12775;46.994;15.498;2023-03-03T03:47:52;21.62;;;16.34;;
1987;SDS011;12775;46.994;15.498;2023-03-03T03:50:18;24.02;;;17.18;;
1987;SDS011;12775;46.994;15.498;2023-03-03T03:52:48;19.60;;;17.40;;
1987;SDS011;12775;46.994;15.498;2023-03-03T03:55:16;19.14;;;15.92;;
1987;SDS011;12775;46.994;15.498;2023-03-03T03:57:44;19.54;;;14.80;;
1987;SDS011;12775;46.994;15.498;2023-03-03T04:00:11;19.72;;;17.20;;
1987;SDS011;12775;46.994;15.498;2023-03-03T04:02:39;19.00;;;15.70;;
1987;SDS011;12775;46.994;15.498;2023-03-03T04:05:08;18.22;;;14.92;;
1987;SDS011;12775;46.994;15.498;2023-03-03T04:07:35;19.28;;;15.70;;
1987;SDS011;12775;46.994;15.498;2023-03-03T04:10:02;15.20;;;13.52;;
1987;SDS011;12775;46.994;15.498;2023-03-03T04:12:29;14.60;;;12.26;;
1987;SDS011;12775;46.994;15.498;2023-03-03T04:14:57;14.56;;;11.98;;
1987;SDS011;12775;46.994;15.498;2023-03-03T04:17:25;13.16;;;10.98;;
1987;SDS011;12775;46.994;15.498;2023-03-03T04:19:54;14.84;;;12.84;;
1987;SDS011;12775;46.994;15.498;2023-03-03T04:22:21;14.84;;;12.22;;
1987;SDS011;12775;46.994;15.498;2023-03-03T04:24:48;19.82;;;13.00;;
1987;SDS011;12775;46.994;15.498;2023-03-03T04:27:15;12.94;;;11.62;;
1987;SDS011;12775;46.994;15.498;2023-03-03T04:29:43;14.16;;;12.52;;
1987;SDS011;12775;46.994;15.498;2023-03-03T04:32:10;13.70;;;11.06;;
1987;SDS011;12775;46.994;15.498;2023-03-03T04:34:37;16.08;;;12.54;;
1987;SDS011;12775;46.994;15.498;2023-03-03T04:37:06;18.36;;;12.38;;
1987;SDS011;12775;46.994;15.498;2023-03-03T04:39:33;20.40;;;15.16;;
1987;SDS011;12775;46.994;15.498;2023-03-03T04:42:01;18.92;;;15.16;;
1987;SDS011;12775;46.994;15.498;2023-03-03T04:44:28;15.96;;;14.28;;
1987;SDS011;12775;46.994;15.498;2023-03-03T04:46:56;18.72;;;14.68;;
1987;SDS011;12775;46.994;15.498;2023-03-03T04:49:25;20.06;;;16.04;;
1987;SDS011;12775;46.994;15.498;2023-03-03T04:51:53;20.66;;;15.80;;
1987;SDS011;12775;46.994;15.498;2023-03-03T04:54:20;21.22;;;16.60;;
1987;SDS011;12775;46.994;15.498;2023-03-03T04:56:49;19.14;;;16.22;;
1987;SDS011;12775;46.994;15.498;2023-03-03T04:59:16;22.04;;;17.26;;
1987;SDS011;12775;46.994;15.498;2023-03-03T05:01:44;21.12;;;16.90;;
1987;SDS011;12775;46.994;15.498;2023-03-03T05:04:12;18.18;;;16.16;;
1987;SDS011;12775;46.994;15.498;2023-03-03T05:06:39;18.64;;;14.42;;
1987;SDS011;12775;46.994;15.498;2023-03-03T05:09:09;21.96;;;17.38;;
1987;SDS011;12775;46.994;15.498;2023-03-03T05:11:37;18.18;;;16.18;;
1987;SDS011;12775;46.994;15.498;2023-03-03T05:14:04;16.50;;;14.80;;
1987;SDS011;12775;46.994;15.498;2023-03-03T05:16:33;15.84;;;13.68;;
1987;SDS011;12775;46.994;15.498;2023-03-03T05:19:00;20.14;;;13.90;;
1987;SDS011;12775;46.994;15.498;2023-03-03T05:21:27;14.58;;;12.48;;
1987;SDS011;12775;46.994;15.498;2023-03-03T05:23:56;17.58;;;13.32;;
1987;SDS011;12775;46.994;15.498;2023-03-03T05:26:24;18.32;;;15.92;;
1987;SDS011;12775;46.994;15.498;2023-03-03T05:28:51;28.22;;;18.86;;
1987;SDS011;12775;46.994;15.498;2023-03-03T05:31:18;21.82;;;17.60;;
1987;SDS011;12775;46.994;15.498;2023-03-03T05:33:46;24.48;;;17.94;;
1987;SDS011;12775;46.994;15.498;2023-03-03T05:36:14;22.96;;;17.34;;
1987;SDS011;12775;46.994;15.498;2023-03-03T05:38:42;22.50;;;17.74;;
1987;SDS011;12775;46.994;15.498;2023-03-03T05:41:08;24.94;;;19.14;;
1987;SDS011;12775;46.994;15.498;2023-03-03T05:43:39;19.46;;;16.96;;
1987;SDS011;12775;46.994;15.498;2023-03-03T05:46:07;23.08;;;17.76;;
1987;SDS011;12775;46.994;15.498;2023-03-03T05:48:34;20.82;;;17.36;;
1987;SDS011;12775;46.994;15.498;2023-03-03T05:51:01;20.62;;;17.76;;
1987;SDS011;12775;46.994;15.498;2023-03-03T05:53:29;23.86;;;17.72;;
1987;SDS011;12775;46.994;15.498;2023-03-03T05:55:56;23.84;;;17.62;;
1987;SDS011;12775;46.994;15.498;2023-03-03T05:58:23;23.40;;;15.74;;
1987;SDS011;12775;46.994;15.498;2023-03-03T06:00:50;16.46;;;14.68;;
1987;SDS011;12775;46.994;15.498;2023-03-03T06:03:18;20.18;;;15.56;;
1987;SDS011;12775;46.994;15.498;2023-03-03T06:05:44;25.04;;;16.46;;
1987;SDS011;12775;46.994;15.498;2023-03-03T06:08:12;20.16;;;16.18;;
1987;SDS011;12775;46.994;15.498;2023-03-03T06:10:40;19.44;;;17.34;;
1987;SDS011;12775;46.994;15.498;2023-03-03T06:13:07;23.86;;;18.36;;
1987;SDS011;12775;46.994;15.498;2023-03-03T06:15:35;24.56;;;17.30;;
1987;SDS011;12775;46.994;15.498;2023-03-03T06:18:02;27.62;;;17.68;;
1987;SDS011;12775;46.994;15.498;2023-03-03T06:20:29;21.90;;;16.52;;
1987;SDS011;12775;46.994;15.498;2023-03-03T06:22:57;20.90;;;17.32;;
1987;SDS011;12775;46.994;15.498;2023-03-03T06:25:24;17.82;;;16.12;;
1987;SDS011;12775;46.994;15.498;2023-03-03T06:27:52;20.02;;;17.08;;
1987;SDS011;12775;46.994;15.498;2023-03-03T06:30:20;19.94;;;17.44;;
1987;SDS011;12775;46.994;15.498;2023-03-03T06:32:47;22.70;;;18.56;;
1987;SDS011;12775;46.994;15.498;2023-03-03T06:35:17;24.46;;;18.54;;
1987;SDS011;12775;46.994;15.498;2023-03-03T06:37:44;18.96;;;16.90;;
1987;SDS011;12775;46.994;15.498;2023-03-03T06:40:11;26.32;;;18.26;;
1987;SDS011;12775;46.994;15.498;2023-03-03T06:42:39;25.28;;;17.38;;
1987;SDS011;12775;46.994;15.498;2023-03-03T06:45:06;20.30;;;16.62;;
1987;SDS011;12775;46.994;15.498;2023-03-03T06:47:35;20.32;;;16.64;;
1987;SDS011;12775;46.994;15.498;2023-03-03T06:50:03;19.08;;;16.84;;
1987;SDS011;12775;46.994;15.498;2023-03-03T06:52:30;18.68;;;16.60;;
1987;SDS011;12775;46.994;15.498;2023-03-03T06:54:58;17.20;;;15.34;;
1987;SDS011;12775;46.994;15.498;2023-03-03T06:57:26;19.18;;;16.88;;
1987;SDS011;12775;46.994;15.498;2023-03-03T06:59:56;19.20;;;16.90;;
1987;SDS011;12775;46.994;15.498;2023-03-03T07:02:22;21.94;;;17.24;;
1987;SDS011;12775;46.994;15.498;2023-03-03T07:04:49;21.12;;;16.24;;
1987;SDS011;12775;46.994;15.498;2023-03-03T07:07:19;20.38;;;16.08;;
1987;SDS011;12775;46.994;15.498;2023-03-03T07:09:48;18.94;;;16.86;;
1987;SDS011;12775;46.994;15.498;2023-03-03T07:12:15;19.40;;;14.58;;
1987;SDS011;12775;46.994;15.498;2023-03-03T07:14:42;19.66;;;17.40;;
1987;SDS011;12775;46.994;15.498;2023-03-03T07:17:13;18.36;;;15.22;;
1987;SDS011;12775;46.994;15.498;2023-03-03T07:19:37;17.56;;;15.76;;
1987;SDS011;12775;46.994;15.498;2023-03-03T07:22:11;19.14;;;16.58;;
1987;SDS011;12775;46.994;15.498;2023-03-03T07:24:33;20.12;;;16.70;;
1987;SDS011;12775;46.994;15.498;2023-03-03T07:29:49;20.72;;;16.26;;
1987;SDS011;12775;46.994;15.498;2023-03-03T07:32:23;21.38;;;16.56;;
1987;SDS011;12775;46.994;15.498;2023-03-03T07:34:49;19.72;;;17.26;;
1987;SDS011;12775;46.994;15.498;2023-03-03T07:37:48;20.44;;;16.26;;
1987;SDS011;12775;46.994;15.498;2023-03-03T07:40:01;18.56;;;16.18;;
1987;SDS011;12775;46.994;15.498;2023-03-03T07:45:20;23.10;;;17.44;;
1987;SDS011;12775;46.994;15.498;2023-03-03T07:47:49;27.44;;;19.36;;
1987;SDS011;12775;46.994;15.498;2023-03-03T07:50:18;20.82;;;17.40;;
1987;SDS011;12775;46.994;15.498;2023-03-03T07:52:54;26.02;;;21.08;;
1987;SDS011;12775;46.994;15.498;2023-03-03T07:55:38;25.38;;;20.16;;
1987;SDS011;12775;46.994;15.498;2023-03-03T07:58:16;25.42;;;20.02;;
1987;SDS011;12775;46.994;15.498;2023-03-03T08:03:29;25.78;;;21.00;;
1987;SDS011;12775;46.994;15.498;2023-03-03T08:05:56;26.04;;;22.44;;
1987;SDS011;12775;46.994;15.498;2023-03-03T08:08:29;37.84;;;33.18;;
1987;SDS011;12775;46.994;15.498;2023-03-03T08:10:58;27.48;;;24.54;;
1987;SDS011;12775;46.994;15.498;2023-03-03T08:13:35;28.92;;;25.66;;
1987;SDS011;12775;46.994;15.498;2023-03-03T08:16:24;26.48;;;21.86;;
1987;SDS011;12775;46.994;15.498;2023-03-03T08:18:51;27.92;;;22.90;;
1987;SDS011;12775;46.994;15.498;2023-03-03T08:21:19;25.20;;;22.42;;
1987;SDS011;12775;46.994;15.498;2023-03-03T08:23:46;23.62;;;20.12;;
1987;SDS011;12775;46.994;15.498;2023-03-03T08:26:13;28.30;;;24.08;;
1987;SDS011;12775;46.994;15.498;2023-03-03T08:28:40;28.50;;;20.48;;
1987;SDS011;12775;46.994;15.498;2023-03-03T08:31:08;25.80;;;22.22;;
1987;SDS011;12775;46.994;15.498;2023-03-03T08:33:36;26.52;;;23.72;;
1987;SDS011;12775;46.994;15.498;2023-03-03T08:36:04;23.26;;;20.60;;
1987;SDS011;12775;46.994;15.498;2023-03-03T08:38:32;23.46;;;20.06;;
1987;SDS011;12775;46.994;15.498;2023-03-03T08:40:59;23.52;;;20.36;;
1987;SDS011;12775;46.994;15.498;2023-03-03T08:43:26;23.38;;;19.70;;
1987;SDS011;12775;46.994;15.498;2023-03-03T08:45:56;22.50;;;19.88;;
1987;SDS011;12775;46.994;15.498;2023-03-03T08:48:21;28.06;;;19.84;;
1987;SDS011;12775;46.994;15.498;2023-03-03T08:50:48;25.24;;;20.06;;
1987;SDS011;12775;46.994;15.498;2023-03-03T08:53:16;24.54;;;20.54;;
1987;SDS011;12775;46.994;15.498;2023-03-03T08:55:43;26.02;;;20.02;;
1987;SDS011;12775;46.994;15.498;2023-03-03T08:58:10;22.36;;;19.68;;
1987;SDS011;12775;46.994;15.498;2023-03-03T09:00:38;21.90;;;19.38;;
1987;SDS011;12775;46.994;15.498;2023-03-03T09:03:06;23.12;;;20.32;;
1987;SDS011;12775;46.994;15.498;2023-03-03T09:05:34;22.52;;;19.54;;
1987;SDS011;12775;46.994;15.498;2023-03-03T09:08:00;22.94;;;20.50;;
1987;SDS011;12775;46.994;15.498;2023-03-03T09:10:28;25.06;;;19.06;;
1987;SDS011;12775;46.994;15.498;2023-03-03T09:12:55;21.96;;;18.00;;
1987;SDS011;12775;46.994;15.498;2023-03-03T09:15:26;26.26;;;20.06;;
1987;SDS011;12775;46.994;15.498;2023-03-03T09:17:53;20.20;;;18.00;;
1987;SDS011;12775;46.994;15.498;2023-03-03T09:20:21;21.54;;;17.80;;
1987;SDS011;12775;46.994;15.498;2023-03-03T09:22:49;22.04;;;19.28;;
1987;SDS011;12775;46.994;15.498;2023-03-03T09:25:21;19.40;;;17.30;;
1987;SDS011;12775;46.994;15.498;2023-03-03T09:27:52;21.90;;;18.70;;
1987;SDS011;12775;46.994;15.498;2023-03-03T09:30:38;20.84;;;18.24;;
1987;SDS011;12775;46.994;15.498;2023-03-03T09:36:00;20.24;;;18.10;;
1987;SDS011;12775;46.994;15.498;2023-03-03T09:38:41;18.80;;;16.90;;
1987;SDS011;12775;46.994;15.498;2023-03-03T09:41:26;19.82;;;17.72;;
1987;SDS011;12775;46.994;15.498;2023-03-03T09:43:55;24.70;;;18.36;;
1987;SDS011;12775;46.994;15.498;2023-03-03T09:46:25;21.14;;;18.98;;
1987;SDS011;12775;46.994;15.498;2023-03-03T09:50:05;21.14;;;16.30;;
1987;SDS011;12775;46.994;15.498;2023-03-03T09:51:43;18.78;;;15.66;;
1987;SDS011;12775;46.994;15.498;2023-03-03T09:54:12;17.38;;;14.54;;
1987;SDS011;12775;46.994;15.498;2023-03-03T09:56:42;18.12;;;15.86;;
1987;SDS011;12775;46.994;15.498;2023-03-03T09:59:15;19.42;;;17.46;;
1987;SDS011;12775;46.994;15.498;2023-03-03T10:01:50;17.26;;;14.78;;
1987;SDS011;12775;46.994;15.498;2023-03-03T10:04:41;18.26;;;14.42;;
1987;SDS011;12775;46.994;15.498;2023-03-03T10:07:27;15.54;;;13.52;;
1987;SDS011;12775;46.994;15.498;2023-03-03T10:10:16;15.12;;;13.52;;
1987;SDS011;12775;46.994;15.498;2023-03-03T10:12:46;23.68;;;15.04;;
1987;SDS011;12775;46.994;15.498;2023-03-03T10:15:36;16.84;;;15.10;;
1987;SDS011;12775;46.994;15.498;2023-03-03T10:18:41;16.76;;;14.58;;
1987;SDS011;12775;46.994;15.498;2023-03-03T10:20:56;16.08;;;11.68;;
1987;SDS011;12775;46.994;15.498;2023-03-03T10:23:37;16.46;;;13.82;;
1987;SDS011;12775;46.994;15.498;2023-03-03T10:27:27;17.76;;;15.36;;
1987;SDS011;12775;46.994;15.498;2023-03-03T10:29:43;21.16;;;14.18;;
1987;SDS011;12775;46.994;15.498;2023-03-03T10:37:28;14.42;;;12.92;;
1987;SDS011;12775;46.994;15.498;2023-03-03T10:43:04;17.66;;;11.80;;
1987;SDS011;12775;46.994;15.498;2023-03-03T10:45:34;21.52;;;14.22;;
1987;SDS011;12775;46.994;15.498;2023-03-03T10:48:07;14.54;;;13.04;;
1987;SDS011;12775;46.994;15.498;2023-03-03T10:53:20;14.74;;;13.24;;
1987;SDS011;12775;46.994;15.498;2023-03-03T10:56:26;17.92;;;13.36;;
1987;SDS011;12775;46.994;15.498;2023-03-03T10:58:44;14.68;;;13.06;;
1987;SDS011;12775;46.994;15.498;2023-03-03T11:01:25;19.00;;;12.86;;
1987;SDS011;12775;46.994;15.498;2023-03-03T11:04:29;17.26;;;14.02;;
1987;SDS011;12775;46.994;15.498;2023-03-03T11:07:14;18.32;;;13.34;;
1987;SDS011;12775;46.994;15.498;2023-03-03T11:09:52;16.04;;;13.22;;
1987;SDS011;12775;46.994;15.498;2023-03-03T11:12:31;17.34;;;14.02;;
1987;SDS011;12775;46.994;15.498;2023-03-03T11:15:05;17.04;;;12.44;;
1987;SDS011;12775;46.994;15.498;2023-03-03T11:17:36;16.52;;;13.68;;
1987;SDS011;12775;46.994;15.498;2023-03-03T11:20:20;14.12;;;11.96;;
1987;SDS011;12775;46.994;15.498;2023-03-03T11:25:37;15.76;;;11.50;;
1987;SDS011;12775;46.994;15.498;2023-03-03T11:31:20;16.12;;;12.72;;
1987;SDS011;12775;46.994;15.498;2023-03-03T11:33:35;15.88;;;13.36;;
1987;SDS011;12775;46.994;15.498;2023-03-03T11:36:15;15.62;;;13.68;;
1987;SDS011;12775;46.994;15.498;2023-03-03T11:38:52;15.52;;;12.64;;
1987;SDS011;12775;46.994;15.498;2023-03-03T11:41:25;14.18;;;12.78;;
1987;SDS011;12775;46.994;15.498;2023-03-03T11:44:01;14.56;;;12.88;;
1987;SDS011;12775;46.994;15.498;2023-03-03T11:46:43;17.66;;;13.74;;
1987;SDS011;12775;46.994;15.498;2023-03-03T11:49:12;17.16;;;12.90;;
1987;SDS011;12775;46.994;15.498;2023-03-03T11:51:43;16.22;;;13.28;;
1987;SDS011;12775;46.994;15.498;2023-03-03T11:54:25;17.50;;;13.90;;
1987;SDS011;12775;46.994;15.498;2023-03-03T11:57:15;15.98;;;13.28;;
1987;SDS011;12775;46.994;15.498;2023-03-03T11:59:43;15.84;;;13.44;;
1987;SDS011;12775;46.994;15.498;2023-03-03T12:04:45;14.58;;;12.92;;
1987;SDS011;12775;46.994;15.498;2023-03-03T12:07:15;20.42;;;13.62;;
1987;SDS011;12775;46.994;15.498;2023-03-03T12:09:54;14.80;;;13.30;;
1987;SDS011;12775;46.994;15.498;2023-03-03T12:12:22;20.48;;;14.64;;
1987;SDS011;12775;46.994;15.498;2023-03-03T12:14:52;14.32;;;12.68;;
1987;SDS011;12775;46.994;15.498;2023-03-03T12:17:31;13.62;;;12.22;;
1987;SDS011;12775;46.994;15.498;2023-03-03T12:20:02;16.28;;;14.02;;
1987;SDS011;12775;46.994;15.498;2023-03-03T12:22:56;14.00;;;12.44;;
1987;SDS011;12775;46.994;15.498;2023-03-03T12:25:30;15.06;;;13.36;;
1987;SDS011;12775;46.994;15.498;2023-03-03T12:27:59;17.76;;;13.82;;
1987;SDS011;12775;46.994;15.498;2023-03-03T12:30:36;20.72;;;14.04;;
1987;SDS011;12775;46.994;15.498;2023-03-03T12:33:10;15.58;;;13.08;;
1987;SDS011;12775;46.994;15.498;2023-03-03T12:35:42;16.88;;;15.08;;
1987;SDS011;12775;46.994;15.498;2023-03-03T12:44:00;14.76;;;13.08;;
1987;SDS011;12775;46.994;15.498;2023-03-03T12:46:40;16.94;;;13.60;;
1987;SDS011;12775;46.994;15.498;2023-03-03T12:49:11;15.20;;;13.40;;
1987;SDS011;12775;46.994;15.498;2023-03-03T12:51:45;17.70;;;13.50;;
1987;SDS011;12775;46.994;15.498;2023-03-03T12:54:13;14.28;;;12.30;;
1987;SDS011;12775;46.994;15.498;2023-03-03T12:57:12;16.06;;;11.76;;
1987;SDS011;12775;46.994;15.498;2023-03-03T13:02:39;17.00;;;12.74;;
1987;SDS011;12775;46.994;15.498;2023-03-03T13:05:16;17.00;;;13.84;;
1987;SDS011;12775;46.994;15.498;2023-03-03T13:07:42;16.24;;;14.22;;
1987;SDS011;12775;46.994;15.498;2023-03-03T13:12:53;16.00;;;13.32;;
1987;SDS011;12775;46.994;15.498;2023-03-03T13:15:26;17.04;;;14.14;;
1987;SDS011;12775;46.994;15.498;2023-03-03T13:17:59;14.08;;;12.44;;
1987;SDS011;12775;46.994;15.498;2023-03-03T13:20:29;14.70;;;13.24;;
1987;SDS011;12775;46.994;15.498;2023-03-03T13:23:19;14.46;;;12.98;;
1987;SDS011;12775;46.994;15.498;2023-03-03T13:25:52;15.60;;;13.86;;
1987;SDS011;12775;46.994;15.498;2023-03-03T13:28:22;17.92;;;14.22;;
1987;SDS011;12775;46.994;15.498;2023-03-03T13:30:49;14.46;;;12.16;;
1987;SDS011;12775;46.994;15.498;2023-03-03T13:33:23;16.86;;;14.66;;
1987;SDS011;12775;46.994;15.498;2023-03-03T13:35:54;13.66;;;12.36;;
1987;SDS011;12775;46.994;15.498;2023-03-03T13:38:40;20.02;;;14.20;;
1987;SDS011;12775;46.994;15.498;2023-03-03T13:41:09;14.42;;;12.94;;
1987;SDS011;12775;46.994;15.498;2023-03-03T13:43:42;14.44;;;12.94;;
1987;SDS011;12775;46.994;15.498;2023-03-03T13:46:09;19.96;;;14.06;;
1987;SDS011;12775;46.994;15.498;2023-03-03T13:48:44;17.06;;;13.74;;
1987;SDS011;12775;46.994;15.498;2023-03-03T13:51:31;14.46;;;12.96;;
1987;SDS011;12775;46.994;15.498;2023-03-03T13:56:55;15.34;;;13.48;;
1987;SDS011;12775;46.994;15.498;2023-03-03T13:59:28;19.10;;;14.82;;
1987;SDS011;12775;46.994;15.498;2023-03-03T14:02:18;17.14;;;13.66;;
1987;SDS011;12775;46.994;15.498;2023-03-03T14:04:53;16.62;;;12.78;;
1987;SDS011;12775;46.994;15.498;2023-03-03T14:07:22;14.30;;;12.82;;
1987;SDS011;12775;46.994;15.498;2023-03-03T14:09:54;14.60;;;12.50;;
1987;SDS011;12775;46.994;15.498;2023-03-03T14:12:37;14.74;;;13.24;;
1987;SDS011;12775;46.994;15.498;2023-03-03T14:15:17;15.02;;;13.52;;
1987;SDS011;12775;46.994;15.498;2023-03-03T14:17:54;18.26;;;14.80;;
1987;SDS011;12775;46.994;15.498;2023-03-03T14:20:33;17.02;;;12.46;;
1987;SDS011;12775;46.994;15.498;2023-03-03T14:23:02;17.46;;;13.00;;
1987;SDS011;12775;46.994;15.498;2023-03-03T14:26:07;18.98;;;15.22;;
1987;SDS011;12775;46.994;15.498;2023-03-03T14:28:18;14.30;;;12.86;;
1987;SDS011;12775;46.994;15.498;2023-03-03T14:30:44;14.48;;;12.56;;
1987;SDS011;12775;46.994;15.498;2023-03-03T14:33:15;17.26;;;13.36;;
1987;SDS011;12775;46.994;15.498;2023-03-03T14:35:49;14.98;;;12.88;;
1987;SDS011;12775;46.994;15.498;2023-03-03T14:38:38;15.74;;;14.06;;
1987;SDS011;12775;46.994;15.498;2023-03-03T14:41:14;16.78;;;12.16;;
1987;SDS011;12775;46.994;15.498;2023-03-03T14:43:41;19.48;;;13.72;;
1987;SDS011;12775;46.994;15.498;2023-03-03T14:49:03;21.32;;;16.04;;
1987;SDS011;12775;46.994;15.498;2023-03-03T14:51:38;14.80;;;12.92;;
1987;SDS011;12775;46.994;15.498;2023-03-03T14:54:15;14.48;;;12.58;;
1987;SDS011;12775;46.994;15.498;2023-03-03T14:56:53;19.22;;;12.60;;
1987;SDS011;12775;46.994;15.498;2023-03-03T14:59:14;16.30;;;14.68;;
1987;SDS011;12775;46.994;15.498;2023-03-03T15:01:43;17.42;;;13.28;;
1987;SDS011;12775;46.994;15.498;2023-03-03T15:06:55;15.14;;;12.42;;
1987;SDS011;12775;46.994;15.498;2023-03-03T15:12:00;15.90;;;13.90;;
1987;SDS011;12775;46.994;15.498;2023-03-03T15:14:36;15.04;;;13.20;;
1987;SDS011;12775;46.994;15.498;2023-03-03T15:19:42;14.00;;;12.60;;
1987;SDS011;12775;46.994;15.498;2023-03-03T15:22:32;17.44;;;13.98;;
1987;SDS011;12775;46.994;15.498;2023-03-03T15:25:04;14.98;;;12.86;;
1987;SDS011;12775;46.994;15.498;2023-03-03T15:27:38;17.60;;;13.74;;
1987;SDS011;12775;46.994;15.498;2023-03-03T15:30:14;14.12;;;12.72;;
1987;SDS011;12775;46.994;15.498;2023-03-03T15:32:57;16.66;;;13.12;;
1987;SDS011;12775;46.994;15.498;2023-03-03T15:35:33;14.42;;;13.08;;
1987;SDS011;12775;46.994;15.498;2023-03-03T15:38:02;16.42;;;12.86;;
1987;SDS011;12775;46.994;15.498;2023-03-03T15:40:34;13.82;;;12.38;;
1987;SDS011;12775;46.994;15.498;2023-03-03T15:46:14;15.80;;;11.94;;
1987;SDS011;12775;46.994;15.498;2023-03-03T15:48:58;14.06;;;12.66;;
1987;SDS011;12775;46.994;15.498;2023-03-03T15:51:46;16.82;;;15.02;;